Time;durP1;ratioP1;P1;durP2;ratioP2;P2;SDS_P1;SDS_P2;PMS_P1;PMS_P2;Temp;Humidity;BMP_temperature;BMP_pressure;BME280_temperature;BME280_humidity;BME280_pressure;Samples;Min_cycle;Max_cycle;Signal;HPM_P1;HPM_P2
2023/11/28 00:01:20;;;;;;;2.83;2.60;;;4.40;99.90;;;;;;5072910;28;38470;-76
2023/11/28 00:03:46;;;;;;;3.17;2.87;;;4.40;99.90;;;;;;5072616;28;39085;-78
2023/11/28 00:06:19;;;;;;;3.33;3.10;;;4.40;99.90;;;;;;5069502;28;36813;-76
2023/11/28 00:08:46;;;;;;;3.57;3.27;;;4.40;99.90;;;;;;5068923;28;38397;-76
2023/11/28 00:11:19;;;;;;;3.97;3.67;;;4.40;99.90;;;;;;5076236;28;38446;-77
2023/11/28 00:13:46;;;;;;;3.60;3.30;;;4.40;99.90;;;;;;5067221;28;38151;-77
2023/11/28 00:16:12;;;;;;;4.03;3.73;;;4.40;99.90;;;;;;5062999;28;38544;-77
2023/11/28 00:18:39;;;;;;;3.57;3.27;;;4.40;99.90;;;;;;5065644;28;36509;-78
2023/11/28 00:21:05;;;;;;;4.23;3.83;;;4.40;99.90;;;;;;5074145;28;37839;-78
2023/11/28 00:23:34;;;;;;;4.40;3.90;;;4.40;99.90;;;;;;5075867;28;38747;-78
2023/11/28 00:26:00;;;;;;;4.07;3.70;;;4.40;99.90;;;;;;5079706;28;38737;-76
2023/11/28 00:28:27;;;;;;;4.20;3.80;;;4.30;99.90;;;;;;5065008;28;36624;-77
2023/11/28 00:30:56;;;;;;;4.63;4.23;;;4.30;99.90;;;;;;5068242;28;37900;-77
2023/11/28 00:33:22;;;;;;;4.93;4.50;;;4.30;99.90;;;;;;5044443;28;37562;-76
2023/11/28 00:35:48;;;;;;;4.40;4.00;;;4.30;99.90;;;;;;5059032;28;39002;-77
2023/11/28 00:38:18;;;;;;;5.10;4.60;;;4.30;99.90;;;;;;5059414;28;37113;-77
2023/11/28 00:40:48;;;;;;;5.57;5.07;;;4.30;99.90;;;;;;5064517;28;39553;-76
2023/11/28 00:43:18;;;;;;;5.37;4.87;;;4.30;99.90;;;;;;5067284;28;38914;-78
2023/11/28 00:45:44;;;;;;;5.97;5.47;;;4.30;99.90;;;;;;5071533;28;39716;-77
2023/11/28 00:48:11;;;;;;;7.03;6.40;;;4.30;99.90;;;;;;5069912;28;38384;-77
2023/11/28 00:50:37;;;;;;;7.23;6.63;;;4.30;99.90;;;;;;5071319;28;39863;-77
2023/11/28 00:53:03;;;;;;;6.63;6.03;;;4.30;99.90;;;;;;5072225;28;37333;-77
2023/11/28 00:55:30;;;;;;;7.13;6.43;;;4.30;99.90;;;;;;5071328;28;36973;-77
2023/11/28 00:57:59;;;;;;;7.40;6.70;;;4.30;99.90;;;;;;5071407;28;36016;-77
2023/11/28 01:00:25;;;;;;;8.40;7.60;;;4.30;99.90;;;;;;5067166;28;40122;-77
2023/11/28 01:02:51;;;;;;;8.77;7.97;;;4.40;99.90;;;;;;5071107;28;36963;-77
2023/11/28 01:05:20;;;;;;;8.63;7.83;;;4.40;99.90;;;;;;5067867;28;37507;-76
2023/11/28 01:07:47;;;;;;;8.63;7.83;;;4.40;99.90;;;;;;5069638;28;37323;-77
2023/11/28 01:10:13;;;;;;;9.10;8.20;;;4.40;99.90;;;;;;5067244;28;38013;-77
2023/11/28 01:12:39;;;;;;;9.50;8.60;;;4.40;99.90;;;;;;5050700;28;38455;-77
2023/11/28 01:15:09;;;;;;;10.37;9.37;;;4.40;99.90;;;;;;5069941;28;38410;-77
2023/11/28 01:17:35;;;;;;;8.93;8.07;;;4.40;99.90;;;;;;5071124;28;37089;-77
2023/11/28 01:20:01;;;;;;;9.80;8.80;;;4.40;99.90;;;;;;5067523;28;39389;-77
2023/11/28 01:22:30;;;;;;;8.47;7.67;;;4.30;99.90;;;;;;5072721;28;38360;-77
2023/11/28 01:25:00;;;;;;;9.63;8.73;;;4.30;99.90;;;;;;5069249;28;36800;-77
2023/11/28 01:27:26;;;;;;;8.50;7.70;;;4.30;99.90;;;;;;5067613;28;37550;-76
2023/11/28 01:29:52;;;;;;;8.63;7.73;;;4.30;99.90;;;;;;5070836;28;38357;-77
2023/11/28 01:32:18;;;;;;;9.30;8.23;;;4.20;99.90;;;;;;5070156;28;37703;-77
2023/11/28 01:34:45;;;;;;;8.23;7.43;;;4.20;99.90;;;;;;5068679;28;38605;-76
2023/11/28 01:37:11;;;;;;;8.50;7.60;;;4.20;99.90;;;;;;5066679;28;38089;-77
2023/11/28 01:39:37;;;;;;;8.10;7.30;;;4.20;99.90;;;;;;5057859;28;37792;-77
2023/11/28 01:42:03;;;;;;;8.97;6.83;;;4.20;99.90;;;;;;5066841;28;39876;-77
2023/11/28 01:44:29;;;;;;;7.67;6.97;;;4.20;99.90;;;;;;5068437;28;38722;-77
2023/11/28 01:46:55;;;;;;;7.63;6.93;;;4.20;99.90;;;;;;5073161;28;36759;-76
2023/11/28 01:49:21;;;;;;;8.37;7.47;;;4.20;99.90;;;;;;5062831;28;38056;-76
2023/11/28 01:51:51;;;;;;;7.63;6.83;;;4.20;99.90;;;;;;5067939;28;38737;-77
2023/11/28 01:54:17;;;;;;;8.60;7.63;;;4.20;99.90;;;;;;5064722;28;38851;-77
2023/11/28 01:56:44;;;;;;;8.50;7.70;;;4.20;99.90;;;;;;5065565;28;37510;-77
2023/11/28 01:59:13;;;;;;;8.90;8.00;;;4.20;99.90;;;;;;5067083;28;38812;-77
2023/11/28 02:01:55;;;;;;;9.10;8.20;;;4.20;99.90;;;;;;5624462;22;39163;-81
2023/11/28 02:04:26;;;;;;;9.73;8.47;;;4.30;99.90;;;;;;5066591;28;35518;-80
2023/11/28 02:06:53;;;;;;;7.90;7.10;;;4.30;99.90;;;;;;5083186;28;36973;-81
2023/11/28 02:09:19;;;;;;;10.83;8.67;;;4.30;99.90;;;;;;5095281;28;38970;-81
2023/11/28 02:11:45;;;;;;;10.10;8.97;;;4.30;99.90;;;;;;5087905;28;37617;-81
2023/11/28 02:14:14;;;;;;;11.50;8.80;;;4.30;99.90;;;;;;5084647;28;37951;-80
2023/11/28 02:16:45;;;;;;;10.37;7.83;;;4.30;99.90;;;;;;5086540;28;36972;-80
2023/11/28 02:19:11;;;;;;;9.07;7.60;;;4.30;99.90;;;;;;5079053;28;37553;-81
2023/11/28 02:21:38;;;;;;;11.17;7.57;;;4.30;99.90;;;;;;5085192;28;37180;-80
2023/11/28 02:24:06;;;;;;;9.30;7.90;;;4.30;99.90;;;;;;5080722;28;36872;-80
2023/11/28 02:26:35;;;;;;;10.77;8.90;;;4.30;99.90;;;;;;5077872;28;36895;-81
2023/11/28 02:29:11;;;;;;;10.43;7.90;;;4.20;99.90;;;;;;5089601;28;38891;-80
2023/11/28 02:31:37;;;;;;;9.13;7.13;;;4.20;99.90;;;;;;5084285;28;48643;-80
2023/11/28 02:34:03;;;;;;;7.97;6.43;;;4.20;99.90;;;;;;5080486;28;38082;-80
2023/11/28 02:36:29;;;;;;;8.53;6.90;;;4.10;99.90;;;;;;5069971;28;35938;-80
2023/11/28 02:38:59;;;;;;;7.50;6.30;;;4.10;99.90;;;;;;5088309;28;37758;-81
2023/11/28 02:41:33;;;;;;;7.17;6.47;;;4.20;99.90;;;;;;5078843;28;38848;-80
2023/11/28 02:44:00;;;;;;;8.37;5.80;;;4.10;99.90;;;;;;5096784;28;39939;-80
2023/11/28 02:46:29;;;;;;;6.57;5.27;;;4.10;99.90;;;;;;5080016;28;49031;-78
2023/11/28 02:48:58;;;;;;;7.00;4.57;;;4.10;99.90;;;;;;5079000;28;37893;-78
2023/11/28 02:51:24;;;;;;;7.03;5.40;;;4.10;99.90;;;;;;5076386;28;38720;-81
2023/11/28 02:53:50;;;;;;;6.93;5.83;;;4.10;99.90;;;;;;5086144;28;37217;-81
2023/11/28 02:56:19;;;;;;;7.10;5.97;;;4.10;99.90;;;;;;5097057;28;36227;-79
2023/11/28 02:58:45;;;;;;;10.77;7.10;;;4.10;99.90;;;;;;5073678;28;37196;-80
2023/11/28 03:01:11;;;;;;;12.67;7.73;;;4.00;99.90;;;;;;5076719;28;37218;-79
2023/11/28 03:03:38;;;;;;;7.27;6.03;;;4.00;99.90;;;;;;5080246;28;39598;-79
2023/11/28 03:06:04;;;;;;;10.10;7.87;;;4.00;99.90;;;;;;5070822;28;37751;-80
2023/11/28 03:08:30;;;;;;;7.87;6.53;;;4.00;99.90;;;;;;5077890;28;39050;-80
2023/11/28 03:10:56;;;;;;;8.67;5.93;;;4.00;99.90;;;;;;5073894;28;37369;-80
2023/11/28 03:13:22;;;;;;;7.90;6.00;;;3.90;99.90;;;;;;5069353;28;36537;-81
2023/11/28 03:15:53;;;;;;;10.07;6.67;;;3.90;99.90;;;;;;5083604;28;35848;-80
2023/11/28 03:18:19;;;;;;;7.63;5.33;;;3.90;99.90;;;;;;5071828;28;38447;-81
2023/11/28 03:20:46;;;;;;;8.13;5.53;;;3.90;99.90;;;;;;5082105;28;38533;-81
2023/11/28 03:23:12;;;;;;;8.13;5.60;;;3.90;99.90;;;;;;5074315;28;38372;-80
2023/11/28 03:25:41;;;;;;;6.33;4.50;;;3.90;99.90;;;;;;5088093;28;37482;-78
2023/11/28 03:28:10;;;;;;;7.23;4.63;;;3.70;99.90;;;;;;5066891;28;38375;-78
2023/11/28 03:30:37;;;;;;;5.77;3.87;;;3.60;99.90;;;;;;5065095;28;37220;-77
2023/11/28 03:33:03;;;;;;;5.33;3.70;;;3.60;99.90;;;;;;5077132;28;38369;-80
2023/11/28 03:35:30;;;;;;;10.50;4.80;;;3.40;99.90;;;;;;5077022;28;38298;-80
2023/11/28 03:38:03;;;;;;;4.33;3.17;;;3.40;99.90;;;;;;5072267;28;37998;-79
2023/11/28 03:40:33;;;;;;;5.47;3.13;;;3.40;99.90;;;;;;5058446;28;48514;-79
2023/11/28 03:43:02;;;;;;;5.47;3.17;;;3.30;99.90;;;;;;5076390;28;38012;-80
2023/11/28 03:45:32;;;;;;;4.17;3.00;;;3.30;99.90;;;;;;5091586;28;47008;-79
2023/11/28 03:47:59;;;;;;;5.30;3.50;;;3.20;99.90;;;;;;5056963;28;38745;-79
2023/11/28 03:50:25;;;;;;;7.30;3.80;;;3.20;99.90;;;;;;5051974;28;37901;-80
2023/11/28 03:52:55;;;;;;;4.03;3.60;;;3.10;99.90;;;;;;5077916;28;37558;-79
2023/11/28 03:55:24;;;;;;;4.80;3.70;;;3.10;99.90;;;;;;5075278;28;39352;-79
2023/11/28 03:57:51;;;;;;;6.83;4.07;;;3.10;99.90;;;;;;5092661;28;39127;-80
2023/11/28 04:00:17;;;;;;;6.47;3.90;;;3.10;99.90;;;;;;5076062;28;38111;-79
2023/11/28 04:02:44;;;;;;;5.73;3.77;;;3.10;99.90;;;;;;5073995;28;38537;-79
2023/11/28 04:05:10;;;;;;;7.37;3.70;;;3.00;99.90;;;;;;5073235;28;37529;-79
2023/11/28 04:07:40;;;;;;;4.53;3.40;;;3.00;99.90;;;;;;5074857;28;38823;-80
2023/11/28 04:10:07;;;;;;;3.60;2.83;;;3.00;99.90;;;;;;5097836;28;37327;-79
2023/11/28 04:12:34;;;;;;;5.67;2.90;;;2.90;99.90;;;;;;5082351;28;37402;-80
2023/11/28 04:15:01;;;;;;;5.07;2.67;;;2.90;99.90;;;;;;5084300;28;38462;-79
2023/11/28 04:17:29;;;;;;;7.37;3.40;;;2.80;99.90;;;;;;5066181;28;38215;-79
2023/11/28 04:19:56;;;;;;;5.57;2.67;;;2.80;99.90;;;;;;5070944;28;37605;-81
2023/11/28 04:22:26;;;;;;;3.17;2.13;;;2.80;99.90;;;;;;5081516;28;38869;-80
2023/11/28 04:24:59;;;;;;;3.13;1.90;;;2.80;99.90;;;;;;5091630;27;38613;-80
2023/11/28 04:27:28;;;;;;;3.90;1.97;;;2.70;99.90;;;;;;5076300;28;37975;-81
2023/11/28 04:29:59;;;;;;;4.07;1.70;;;2.70;99.90;;;;;;5096448;28;39067;-79
2023/11/28 04:32:28;;;;;;;2.33;1.60;;;2.70;99.90;;;;;;5081471;28;38504;-79
2023/11/28 04:34:54;;;;;;;3.00;1.60;;;2.70;99.90;;;;;;5085125;28;36666;-79
2023/11/28 04:37:30;;;;;;;2.43;1.67;;;2.60;99.90;;;;;;5072261;28;37952;-79
2023/11/28 04:39:56;;;;;;;3.37;2.17;;;2.60;99.90;;;;;;5075589;28;39960;-80
2023/11/28 04:42:22;;;;;;;5.93;1.70;;;2.60;99.90;;;;;;5074476;28;39668;-79
2023/11/28 04:44:49;;;;;;;3.63;1.60;;;2.60;99.90;;;;;;5089554;28;36885;-79
2023/11/28 04:47:17;;;;;;;2.90;1.70;;;2.60;99.90;;;;;;5082547;28;39306;-80
2023/11/28 04:49:43;;;;;;;3.30;1.60;;;2.50;99.90;;;;;;5081174;28;39363;-79
2023/11/28 04:52:13;;;;;;;3.33;1.70;;;2.50;99.90;;;;;;5090806;28;38402;-80
2023/11/28 04:54:42;;;;;;;2.27;1.17;;;2.40;99.90;;;;;;5072845;28;37901;-79
2023/11/28 04:57:08;;;;;;;1.63;1.50;;;2.40;99.90;;;;;;5071128;28;38773;-79
2023/11/28 04:59:35;;;;;;;3.27;1.50;;;2.40;99.90;;;;;;5080292;28;38816;-79
2023/11/28 05:02:01;;;;;;;3.90;1.80;;;2.40;99.90;;;;;;5080810;28;38652;-80
2023/11/28 05:04:32;;;;;;;2.47;1.60;;;2.30;99.90;;;;;;5070318;28;48955;-80
2023/11/28 05:06:58;;;;;;;2.23;1.90;;;2.20;99.90;;;;;;5080012;28;40306;-78
2023/11/28 05:09:27;;;;;;;2.43;1.63;;;2.30;99.90;;;;;;5080156;28;38713;-79
2023/11/28 05:11:53;;;;;;;3.93;1.60;;;2.20;99.90;;;;;;5074928;28;37944;-79
2023/11/28 05:14:22;;;;;;;3.40;1.77;;;2.20;99.90;;;;;;5074421;28;37376;-79
2023/11/28 05:16:49;;;;;;;3.13;1.73;;;2.20;99.90;;;;;;5078342;28;37961;-80
2023/11/28 05:19:19;;;;;;;2.30;1.60;;;2.20;99.90;;;;;;5078922;28;38747;-79
2023/11/28 05:21:45;;;;;;;4.60;2.03;;;2.20;99.90;;;;;;5077909;28;38289;-79
2023/11/28 05:24:14;;;;;;;3.37;1.60;;;2.10;99.90;;;;;;5087964;28;35644;-79
2023/11/28 05:26:40;;;;;;;2.27;1.30;;;2.10;99.90;;;;;;5087130;28;38763;-79
2023/11/28 05:29:06;;;;;;;3.27;1.77;;;2.20;99.90;;;;;;5072527;28;38427;-79
2023/11/28 05:31:36;;;;;;;2.63;1.70;;;2.20;99.90;;;;;;5080361;28;38069;-80
2023/11/28 05:34:03;;;;;;;2.43;1.13;;;2.20;99.90;;;;;;5081519;28;37291;-80
2023/11/28 05:36:29;;;;;;;2.23;1.33;;;2.20;99.90;;;;;;5066252;28;38860;-79
2023/11/28 05:38:55;;;;;;;4.17;1.40;;;2.30;99.90;;;;;;5093873;28;38702;-78
2023/11/28 05:41:21;;;;;;;4.73;1.30;;;2.30;99.90;;;;;;5056140;28;36935;-79
2023/11/28 05:43:47;;;;;;;1.60;1.33;;;2.30;99.90;;;;;;5083363;28;37445;-79
2023/11/28 05:46:13;;;;;;;2.73;1.27;;;2.30;99.90;;;;;;5092560;28;38641;-79
2023/11/28 05:48:40;;;;;;;2.33;1.30;;;2.30;99.90;;;;;;5072067;28;37275;-80
2023/11/28 05:51:08;;;;;;;1.63;1.00;;;2.30;99.90;;;;;;5077046;28;40519;-79
2023/11/28 05:53:35;;;;;;;1.20;0.90;;;2.30;99.90;;;;;;5077289;28;36373;-79
2023/11/28 05:56:09;;;;;;;1.70;1.27;;;2.30;99.90;;;;;;5078419;28;38783;-79
2023/11/28 05:58:35;;;;;;;1.47;0.97;;;2.40;99.90;;;;;;5084909;28;48290;-79
2023/11/28 06:01:05;;;;;;;1.80;1.30;;;2.30;99.90;;;;;;5089402;28;36585;-80
2023/11/28 06:03:32;;;;;;;2.27;1.10;;;2.40;99.90;;;;;;5080120;28;47606;-79
2023/11/28 06:05:59;;;;;;;1.10;0.80;;;2.30;99.90;;;;;;5097641;28;39207;-79
2023/11/28 06:08:25;;;;;;;2.10;1.20;;;2.30;99.90;;;;;;5068536;28;38076;-78
2023/11/28 06:11:00;;;;;;;3.20;1.10;;;2.40;99.90;;;;;;5079598;28;38379;-78
2023/11/28 06:13:27;;;;;;;2.47;1.00;;;2.40;99.90;;;;;;5081472;28;36902;-79
2023/11/28 06:15:53;;;;;;;1.43;0.90;;;2.30;99.90;;;;;;5089677;28;40069;-78
2023/11/28 06:18:42;;;;;;;1.13;1.03;;;2.30;99.90;;;;;;5063165;28;39099;-79
2023/11/28 06:21:27;;;;;;;1.77;1.30;;;2.30;99.90;;;;;;5080269;28;39395;-79
2023/11/28 06:23:54;;;;;;;2.27;1.13;;;2.30;99.90;;;;;;5061094;28;37572;-79
2023/11/28 06:26:43;;;;;;;1.60;1.07;;;2.20;99.90;;;;;;5072859;28;39319;-79
2023/11/28 06:29:18;;;;;;;5.70;1.10;;;2.20;99.90;;;;;;5091622;28;39558;-78
2023/11/28 06:31:48;;;;;;;2.63;1.37;;;2.20;99.90;;;;;;5073766;28;38433;-79
2023/11/28 06:34:17;;;;;;;1.57;1.33;;;2.20;99.90;;;;;;5067695;28;36197;-78
2023/11/28 06:36:44;;;;;;;3.63;1.10;;;2.20;99.90;;;;;;5073900;28;40147;-78
2023/11/28 06:39:11;;;;;;;2.33;1.20;;;2.10;99.90;;;;;;5069124;28;37792;-78
2023/11/28 06:41:39;;;;;;;2.40;1.33;;;2.10;99.90;;;;;;5065100;28;36960;-78
2023/11/28 06:44:05;;;;;;;3.13;1.67;;;2.00;99.90;;;;;;5069377;28;37133;-79
2023/11/28 06:46:34;;;;;;;2.17;1.30;;;2.00;99.90;;;;;;5080816;28;37691;-78
2023/11/28 06:49:02;;;;;;;1.63;1.30;;;2.00;99.90;;;;;;5042522;28;37359;-77
2023/11/28 06:51:35;;;;;;;1.77;1.30;;;2.00;99.90;;;;;;5055659;28;48801;-81
2023/11/28 06:54:02;;;;;;;2.90;1.20;;;2.00;99.90;;;;;;5034125;28;37171;-78
2023/11/28 06:56:29;;;;;;;2.60;1.20;;;1.90;99.90;;;;;;5067845;28;47753;-78
2023/11/28 06:58:55;;;;;;;1.43;1.13;;;1.90;99.90;;;;;;5065482;28;39035;-77
2023/11/28 07:01:21;;;;;;;2.07;1.40;;;1.90;99.90;;;;;;5062745;28;38693;-78
2023/11/28 07:03:53;;;;;;;1.87;1.23;;;1.80;99.90;;;;;;5049486;28;36168;-78
2023/11/28 07:06:19;;;;;;;3.00;1.43;;;1.80;99.90;;;;;;5060224;28;38022;-78
2023/11/28 07:08:45;;;;;;;2.77;1.43;;;1.80;99.90;;;;;;5068175;28;37573;-78
2023/11/28 07:11:19;;;;;;;2.80;1.40;;;1.90;99.90;;;;;;5059843;28;36941;-76
2023/11/28 07:13:47;;;;;;;2.53;1.23;;;1.90;99.90;;;;;;5041241;28;36007;-78
2023/11/28 07:16:14;;;;;;;1.87;1.00;;;1.90;99.90;;;;;;5056200;28;38715;-78
2023/11/28 07:18:44;;;;;;;2.30;1.40;;;1.90;99.90;;;;;;5059265;28;37718;-79
2023/11/28 07:21:14;;;;;;;3.20;1.60;;;1.90;99.90;;;;;;5073249;28;37262;-77
2023/11/28 07:23:44;;;;;;;2.00;1.10;;;1.90;99.90;;;;;;5083353;28;36617;-77
2023/11/28 07:26:10;;;;;;;5.30;1.87;;;1.90;99.90;;;;;;5067738;28;39382;-78
2023/11/28 07:28:36;;;;;;;2.80;1.73;;;1.90;99.90;;;;;;5079096;28;38107;-77
2023/11/28 07:31:03;;;;;;;2.27;1.77;;;1.80;99.90;;;;;;5066941;28;38400;-76
2023/11/28 07:33:29;;;;;;;4.40;1.80;;;1.80;99.90;;;;;;5077072;28;35943;-76
2023/11/28 07:35:55;;;;;;;2.73;1.73;;;1.80;99.90;;;;;;5077109;28;37609;-76
2023/11/28 07:38:24;;;;;;;4.47;2.00;;;1.80;99.90;;;;;;5066027;28;37479;-78
2023/11/28 07:40:51;;;;;;;3.17;1.67;;;1.80;99.90;;;;;;5067774;28;37994;-78
2023/11/28 07:43:18;;;;;;;3.60;1.77;;;1.80;99.90;;;;;;5060380;28;36700;-76
2023/11/28 07:45:45;;;;;;;3.13;1.63;;;1.70;99.90;;;;;;5078027;28;37942;-78
2023/11/28 07:48:12;;;;;;;3.27;1.80;;;1.70;99.90;;;;;;5044894;28;37375;-78
2023/11/28 07:50:38;;;;;;;3.23;1.80;;;1.70;99.90;;;;;;5049955;28;37037;-78
2023/11/28 07:53:06;;;;;;;3.20;1.73;;;1.70;99.90;;;;;;5065886;28;38104;-77
2023/11/28 07:55:32;;;;;;;4.10;1.90;;;1.80;99.90;;;;;;5073267;28;39620;-78
2023/11/28 07:57:58;;;;;;;6.10;1.93;;;1.70;99.90;;;;;;5064080;28;38754;-78
2023/11/28 08:00:25;;;;;;;3.20;1.90;;;1.70;99.90;;;;;;5065932;28;38020;-78
2023/11/28 08:02:55;;;;;;;4.30;1.93;;;1.60;99.90;;;;;;5070462;28;37063;-79
2023/11/28 08:05:22;;;;;;;2.50;1.90;;;1.60;99.90;;;;;;5057976;28;38021;-77
2023/11/28 08:07:48;;;;;;;6.87;2.30;;;1.60;99.90;;;;;;5072520;28;37665;-78
2023/11/28 08:10:14;;;;;;;4.03;2.20;;;1.60;99.90;;;;;;5071362;28;38204;-78
2023/11/28 08:12:40;;;;;;;3.80;2.33;;;1.60;99.90;;;;;;5089322;28;36465;-78
2023/11/28 08:15:07;;;;;;;5.97;2.80;;;1.50;99.90;;;;;;5064028;28;38903;-78
2023/11/28 08:17:36;;;;;;;4.00;2.73;;;1.60;99.90;;;;;;5072039;28;38892;-78
2023/11/28 08:20:03;;;;;;;6.87;2.70;;;1.60;99.90;;;;;;5084822;28;37207;-78
2023/11/28 08:22:30;;;;;;;6.73;2.67;;;1.70;99.90;;;;;;5064614;28;36151;-77
2023/11/28 08:24:56;;;;;;;6.40;3.23;;;1.70;99.90;;;;;;5062378;28;38668;-78
2023/11/28 08:27:22;;;;;;;3.63;2.50;;;1.80;99.90;;;;;;5049855;28;38293;-77
2023/11/28 08:29:48;;;;;;;5.43;2.83;;;1.80;99.90;;;;;;5061972;28;39076;-78
2023/11/28 08:32:18;;;;;;;3.83;2.53;;;1.80;99.90;;;;;;5063413;28;36508;-78
2023/11/28 08:34:47;;;;;;;4.33;2.60;;;1.90;99.90;;;;;;5075059;28;39145;-78
2023/11/28 08:37:19;;;;;;;5.77;3.23;;;1.90;99.90;;;;;;5081349;28;38390;-78
2023/11/28 08:39:48;;;;;;;6.53;3.22;;;1.90;99.90;;;;;;5064793;28;37075;-79
2023/11/28 08:42:14;;;;;;;5.60;3.10;;;1.90;99.90;;;;;;5076297;28;36461;-78
2023/11/28 08:44:42;;;;;;;4.53;2.77;;;2.00;99.90;;;;;;5054974;28;39876;-78
2023/11/28 08:47:08;;;;;;;4.83;3.20;;;2.00;99.90;;;;;;5052992;28;38184;-77
2023/11/28 08:49:39;;;;;;;6.37;2.80;;;2.10;99.90;;;;;;5066334;28;38206;-77
2023/11/28 08:52:05;;;;;;;6.43;2.70;;;2.20;99.90;;;;;;5060863;28;37897;-77
2023/11/28 08:54:32;;;;;;;6.63;3.13;;;2.20;99.90;;;;;;5072941;28;37660;-77
2023/11/28 08:56:59;;;;;;;4.83;2.90;;;2.20;99.90;;;;;;5061798;28;38209;-78
2023/11/28 08:59:26;;;;;;;6.60;3.40;;;2.30;99.90;;;;;;5071380;28;37954;-78
2023/11/28 09:01:52;;;;;;;5.83;3.30;;;2.30;99.90;;;;;;5063820;28;37584;-79
2023/11/28 09:04:21;;;;;;;5.17;2.70;;;2.30;99.90;;;;;;5081673;28;37714;-78
2023/11/28 09:06:47;;;;;;;8.20;3.87;;;2.30;99.90;;;;;;5063775;28;38429;-77
2023/11/28 09:09:14;;;;;;;2.70;2.33;;;2.40;99.90;;;;;;5076591;28;38095;-79
2023/11/28 09:11:40;;;;;;;5.80;3.03;;;2.50;99.90;;;;;;5045437;28;36761;-79
2023/11/28 09:14:07;;;;;;;10.10;2.97;;;2.60;99.90;;;;;;5063419;28;39126;-78
2023/11/28 09:16:33;;;;;;;4.47;2.50;;;2.60;99.90;;;;;;5076511;28;37614;-78
2023/11/28 09:19:03;;;;;;;6.83;2.67;;;2.70;99.90;;;;;;5074557;28;37382;-79
2023/11/28 09:21:32;;;;;;;5.47;2.37;;;2.70;99.90;;;;;;5072098;28;48633;-79
2023/11/28 09:23:58;;;;;;;1.90;1.70;;;2.80;99.90;;;;;;5063916;28;38976;-79
2023/11/28 09:26:26;;;;;;;3.23;2.17;;;2.80;99.90;;;;;;5092601;28;38957;-79
2023/11/28 09:28:53;;;;;;;3.17;2.03;;;3.00;99.90;;;;;;5049195;28;37176;-79
2023/11/28 09:31:25;;;;;;;6.13;2.57;;;3.00;99.90;;;;;;5063265;28;37262;-78
2023/11/28 09:33:53;;;;;;;3.35;1.15;;;3.00;99.90;;;;;;5054786;28;37834;-79
2023/11/28 09:36:20;;;;;;;3.87;2.20;;;3.00;99.90;;;;;;5082735;28;38487;-79
2023/11/28 09:38:46;;;;;;;3.97;2.00;;;3.00;99.90;;;;;;5094156;28;38056;-78
2023/11/28 09:41:25;;;;;;;3.47;2.10;;;3.10;99.90;;;;;;5072992;28;37192;-79
2023/11/28 09:43:55;;;;;;;3.47;1.80;;;3.10;99.90;;;;;;5075186;28;38430;-79
2023/11/28 09:46:28;;;;;;;4.67;2.07;;;3.10;99.90;;;;;;5069389;28;37634;-79
2023/11/28 09:49:00;;;;;;;3.73;2.00;;;3.20;99.90;;;;;;5086774;28;37982;-80
2023/11/28 09:51:30;;;;;;;5.67;2.20;;;3.20;99.90;;;;;;5074709;28;37305;-79
2023/11/28 09:53:58;;;;;;;6.37;2.00;;;3.20;99.80;;;;;;5059178;28;40076;-79
2023/11/28 09:56:25;;;;;;;4.33;2.00;;;3.30;99.90;;;;;;5063534;28;37569;-80
2023/11/28 09:58:59;;;;;;;4.17;1.80;;;3.40;99.90;;;;;;5076175;28;38931;-79
2023/11/28 10:01:25;;;;;;;4.60;2.00;;;3.40;99.90;;;;;;5087062;28;36408;-79
2023/11/28 10:03:52;;;;;;;4.70;2.43;;;3.40;99.70;;;;;;5071298;28;38496;-80
2023/11/28 10:06:24;;;;;;;3.57;2.20;;;3.40;99.90;;;;;;5057139;28;38417;-79
2023/11/28 10:08:56;;;;;;;3.83;1.83;;;3.50;99.30;;;;;;5070188;28;37100;-79
2023/11/28 10:11:25;;;;;;;3.75;2.28;;;3.60;99.90;;;;;;5082404;28;37795;-80
2023/11/28 10:13:52;;;;;;;3.93;2.30;;;3.60;95.80;;;;;;5072740;28;38072;-80
2023/11/28 10:16:40;;;;;;;4.90;2.30;;;3.70;97.30;;;;;;5090355;28;39684;-80
2023/11/28 10:19:06;;;;;;;4.10;2.00;;;3.80;91.80;;;;;;5058008;28;38219;-78
2023/11/28 10:21:33;;;;;;;4.37;2.20;;;3.80;90.00;;;;;;5064743;28;38586;-79
2023/11/28 10:24:06;;;;;;;2.53;1.70;;;4.00;87.20;;;;;;5081183;28;38830;-81
2023/11/28 10:26:32;;;;;;;6.07;2.27;;;4.10;86.60;;;;;;5079913;28;47317;-81
2023/11/28 10:29:05;;;;;;;3.53;2.10;;;4.10;84.20;;;;;;5077114;28;39533;-81
2023/11/28 10:31:39;;;;;;;5.73;1.80;;;4.10;78.60;;;;;;5078805;28;49665;-81
2023/11/28 10:34:11;;;;;;;4.27;2.77;;;4.10;71.90;;;;;;5068012;28;39245;-80
2023/11/28 10:36:43;;;;;;;7.15;3.33;;;4.10;78.60;;;;;;5075403;28;37049;-80
2023/11/28 10:39:10;;;;;;;3.40;2.10;;;4.10;81.80;;;;;;5069610;28;38437;-79
2023/11/28 10:41:40;;;;;;;3.07;1.97;;;4.10;84.80;;;;;;5059660;28;36107;-79
2023/11/28 10:44:09;;;;;;;2.47;1.77;;;4.10;80.90;;;;;;5086005;28;37753;-79
2023/11/28 10:46:40;;;;;;;4.47;2.30;;;4.10;83.50;;;;;;5067485;28;38451;-79
2023/11/28 10:49:06;;;;;;;2.57;2.07;;;4.00;84.30;;;;;;5068539;28;38591;-80
2023/11/28 10:51:35;;;;;;;3.00;2.07;;;4.00;90.20;;;;;;5070641;28;37547;-79
2023/11/28 10:54:05;;;;;;;5.20;2.00;;;4.00;92.60;;;;;;5055623;28;38081;-78
2023/11/28 10:56:45;;;;;;;2.40;2.00;;;4.00;94.20;;;;;;5089448;28;37034;-79
2023/11/28 10:59:20;;;;;;;3.37;2.03;;;4.00;93.30;;;;;;5087307;28;38162;-79
2023/11/28 11:01:46;;;;;;;3.43;1.90;;;3.90;90.50;;;;;;5068245;28;38379;-79
2023/11/28 11:04:15;;;;;;;6.33;2.23;;;3.90;80.70;;;;;;5091680;28;39476;-80
2023/11/28 11:06:41;;;;;;;4.90;1.90;;;3.90;88.30;;;;;;5066052;28;38666;-80
2023/11/28 11:09:11;;;;;;;4.50;1.90;;;3.90;78.20;;;;;;5066498;28;37114;-80
2023/11/28 11:11:39;;;;;;;3.87;1.90;;;4.00;86.20;;;;;;5079485;28;37010;-80
2023/11/28 11:14:30;;;;;;;5.70;2.20;;;4.10;91.10;;;;;;5077621;28;38855;-80
2023/11/28 11:17:52;;;;;;;3.70;2.00;;;4.20;87.30;;;;;;5081700;28;38274;-80
2023/11/28 11:20:27;;;;;;;3.97;2.40;;;4.20;87.30;;;;;;5022584;28;49178;-79
2023/11/28 11:23:00;;;;;;;2.80;2.17;;;4.20;74.80;;;;;;5064149;28;38023;-79
2023/11/28 11:25:28;;;;;;;;;;;4.30;73.20;;;;;;5089402;28;40817;-79
2023/11/28 11:27:57;;;;;;;3.57;2.07;;;4.30;57.40;;;;;;5063738;28;37437;-80
2023/11/28 11:30:36;;;;;;;5.30;1.90;;;4.30;58.10;;;;;;5076785;28;37178;-79
2023/11/28 11:33:07;;;;;;;3.23;2.10;;;4.30;55.90;;;;;;5077499;28;36389;-79
2023/11/28 11:36:04;;;;;;;5.47;2.23;;;4.50;56.00;;;;;;5062774;28;37570;-79
2023/11/28 11:38:30;;;;;;;4.93;2.33;;;4.60;58.90;;;;;;5081222;28;47516;-79
2023/11/28 11:40:57;;;;;;;6.83;2.40;;;4.70;38.10;;;;;;5078817;28;36797;-79
2023/11/28 11:43:28;;;;;;;2.77;1.90;;;4.80;35.00;;;;;;5081721;28;36891;-79
2023/11/28 11:46:16;;;;;;;3.83;1.83;;;4.90;49.80;;;;;;5068138;28;40183;-79
2023/11/28 11:48:43;;;;;;;4.03;1.90;;;4.90;33.50;;;;;;5070187;28;49242;-79
2023/11/28 11:51:10;;;;;;;4.63;2.10;;;4.90;23.60;;;;;;5074412;28;38809;-79
2023/11/28 11:53:41;;;;;;;4.13;1.83;;;5.00;26.30;;;;;;5081519;28;37575;-78
2023/11/28 11:56:11;;;;;;;4.30;2.00;;;5.10;34.70;;;;;;5066609;28;39200;-80
2023/11/28 11:58:37;;;;;;;3.03;1.83;;;5.20;28.30;;;;;;5080538;28;38582;-81
2023/11/28 12:01:07;;;;;;;2.60;1.73;;;5.20;27.70;;;;;;5090291;28;37790;-80
2023/11/28 12:03:33;;;;;;;4.63;1.90;;;5.30;24.50;;;;;;5074962;28;37757;-80
2023/11/28 12:06:01;;;;;;;3.37;1.60;;;5.30;38.10;;;;;;5084619;28;39081;-80
2023/11/28 12:08:27;;;;;;;2.30;1.77;;;5.40;34.50;;;;;;5096006;28;47796;-80
2023/11/28 12:11:14;;;;;;;1.87;1.63;;;5.50;28.90;;;;;;5086152;28;38418;-80
2023/11/28 12:13:40;;;;;;;4.47;1.93;;;5.40;22.00;;;;;;5083579;28;48412;-79
2023/11/28 12:16:12;;;;;;;3.33;1.90;;;5.50;24.10;;;;;;5080817;28;37941;-79
2023/11/28 12:18:39;;;;;;;3.88;1.98;;;5.50;21.90;;;;;;5086836;28;39553;-79
2023/11/28 12:21:06;;;;;;;3.07;2.27;;;5.50;22.50;;;;;;5058620;28;38608;-79
2023/11/28 12:23:32;;;;;;;8.07;2.13;;;5.40;24.20;;;;;;5080424;28;38290;-79
2023/11/28 12:25:58;;;;;;;2.93;1.83;;;5.40;27.00;;;;;;5096967;28;37937;-79
2023/11/28 12:28:28;;;;;;;4.63;2.50;;;5.30;25.80;;;;;;5081595;28;38242;-80
2023/11/28 12:30:56;;;;;;;3.37;2.37;;;5.40;35.10;;;;;;5083751;28;37117;-81
2023/11/28 12:33:23;;;;;;;4.23;2.00;;;5.30;36.70;;;;;;5088594;28;38743;-79
2023/11/28 12:35:49;;;;;;;7.03;2.63;;;5.30;40.40;;;;;;5055109;28;38774;-79
2023/11/28 12:38:17;;;;;;;4.83;2.77;;;5.20;39.30;;;;;;5072922;28;36914;-80
2023/11/28 12:40:46;;;;;;;7.13;2.30;;;5.20;54.70;;;;;;5078337;28;39285;-79
2023/11/28 12:43:20;;;;;;;4.43;2.30;;;5.20;52.10;;;;;;5095967;28;36977;-79
2023/11/28 12:45:48;;;;;;;5.10;2.40;;;5.10;46.40;;;;;;5080825;28;37963;-79
2023/11/28 12:48:14;;;;;;;4.57;2.00;;;5.10;47.20;;;;;;5084957;28;38552;-79
2023/11/28 12:50:42;;;;;;;6.83;2.23;;;5.10;51.20;;;;;;5075441;28;38597;-79
2023/11/28 12:53:21;;;;;;;7.17;2.20;;;5.10;54.10;;;;;;5076013;28;37271;-80
2023/11/28 12:55:50;;;;;;;7.23;2.47;;;5.00;56.60;;;;;;5080159;28;40181;-80
2023/11/28 12:58:18;;;;;;;6.77;2.73;;;5.00;60.40;;;;;;5080493;28;36973;-80
2023/11/28 13:00:45;;;;;;;4.27;2.17;;;5.00;63.50;;;;;;5080081;28;37277;-80
2023/11/28 13:03:11;;;;;;;6.90;2.70;;;5.10;73.40;;;;;;5075798;28;35998;-80
2023/11/28 13:05:37;;;;;;;2.93;2.43;;;5.10;69.80;;;;;;5073282;28;38982;-80